createdAt,value
2019-03-31T00:02:29.846Z,78.27
2019-03-31T00:05:02.415Z,77.75
2019-03-31T00:07:35.375Z,77.75
2019-03-31T00:10:07.928Z,78.51
2019-03-31T00:12:40.536Z,78.70
2019-03-31T00:15:13.379Z,79.33
2019-03-31T00:17:45.978Z,79.15
2019-03-31T00:20:18.516Z,78.54
2019-03-31T00:22:51.162Z,78.58
2019-03-31T00:25:23.786Z,78.50
2019-03-31T00:27:56.335Z,78.68
2019-03-31T00:30:28.908Z,78.92
2019-03-31T00:33:01.388Z,79.06
2019-03-31T00:35:33.845Z,79.49
2019-03-31T00:38:06.365Z,79.78
2019-03-31T00:40:38.956Z,79.95
2019-03-31T00:43:11.606Z,79.94
2019-03-31T00:45:44.177Z,80.58
2019-03-31T00:48:16.666Z,80.36
2019-03-31T00:50:49.225Z,80.35
2019-03-31T00:53:21.636Z,80.16
2019-03-31T00:55:54.126Z,80.01
2019-03-31T00:58:26.676Z,79.99
2019-03-31T01:01:17.974Z,80.01
2019-03-31T01:03:52.097Z,80.09
2019-03-31T01:06:24.895Z,80.17
2019-03-31T01:08:58.661Z,80.29
2019-03-31T01:11:31.166Z,79.92
2019-03-31T01:14:03.844Z,79.66
2019-03-31T01:16:36.457Z,80.09
2019-03-31T01:19:09.414Z,79.95
2019-03-31T01:21:42.119Z,80.48
2019-03-31T01:24:14.996Z,80.56
2019-03-31T01:26:48.285Z,80.64
2019-03-31T01:29:22.666Z,80.91
2019-03-31T01:31:56.595Z,81.28
2019-03-31T01:34:29.086Z,81.94
2019-03-31T01:37:01.860Z,81.48
2019-03-31T01:39:34.989Z,81.12
2019-03-31T01:42:07.616Z,81.80
2019-03-31T01:44:40.075Z,80.57
2019-03-31T01:47:13.088Z,80.75
2019-03-31T01:49:46.795Z,80.41
2019-03-31T01:52:20.686Z,80.59
2019-03-31T01:54:54.516Z,80.85
2019-03-31T01:57:29.055Z,81.14
2019-03-31T02:00:02.026Z,80.87
2019-03-31T02:02:35.026Z,81.02
2019-03-31T02:05:08.306Z,80.05
2019-03-31T02:07:41.036Z,79.38
2019-03-31T02:10:14.137Z,79.58
2019-03-31T02:12:46.837Z,79.52
2019-03-31T02:15:19.420Z,79.50
2019-03-31T02:17:52.036Z,79.39
2019-03-31T02:20:24.706Z,79.61
2019-03-31T02:22:57.325Z,79.58
2019-03-31T02:25:30.275Z,80.24
2019-03-31T02:28:03.491Z,79.69
2019-03-31T02:30:35.928Z,79.79
2019-03-31T02:33:08.840Z,80.09
2019-03-31T02:35:42.575Z,80.12
2019-03-31T02:38:15.276Z,80.28
2019-03-31T02:40:48.274Z,80.43
2019-03-31T02:43:20.826Z,80.48
2019-03-31T02:45:53.296Z,80.67
2019-03-31T02:48:26.200Z,80.98
2019-03-31T02:50:58.966Z,80.93
2019-03-31T02:53:32.039Z,81.39
2019-03-31T02:56:06.136Z,82.40
2019-03-31T02:58:40.017Z,82.80
2019-03-31T03:01:15.716Z,82.42
2019-03-31T03:03:50.296Z,81.13
2019-03-31T03:06:24.880Z,81.18
2019-03-31T03:08:59.336Z,81.32
2019-03-31T03:11:33.267Z,80.28
2019-03-31T03:14:07.908Z,79.93
2019-03-31T03:16:40.818Z,80.31
2019-03-31T03:19:13.762Z,80.46
2019-03-31T03:21:46.493Z,80.64
2019-03-31T03:24:19.147Z,80.95
2019-03-31T03:26:52.017Z,81.07
2019-03-31T03:29:24.787Z,81.06
2019-03-31T03:31:57.588Z,81.06
2019-03-31T03:34:30.068Z,80.95
2019-03-31T03:37:02.835Z,81.17
2019-03-31T03:39:35.646Z,81.19
2019-03-31T03:42:08.187Z,80.88
2019-03-31T03:44:40.919Z,81.15
2019-03-31T03:47:13.588Z,81.54
2019-03-31T03:49:46.456Z,81.17
2019-03-31T03:52:19.157Z,80.66
2019-03-31T03:54:51.907Z,80.36
2019-03-31T03:57:24.447Z,81.15
2019-03-31T03:59:57.559Z,80.85
2019-03-31T04:02:30.316Z,81.55
2019-03-31T04:05:02.871Z,81.59
2019-03-31T04:07:35.584Z,81.47
2019-03-31T04:10:11.378Z,80.98
2019-03-31T04:12:43.958Z,80.61
2019-03-31T04:15:16.979Z,81.12
2019-03-31T04:17:49.865Z,80.95
2019-03-31T04:20:22.388Z,81.95
2019-03-31T04:22:55.053Z,81.59
2019-03-31T04:25:27.909Z,80.81
2019-03-31T04:28:00.754Z,81.01
2019-03-31T04:30:33.518Z,81.41
2019-03-31T04:33:06.232Z,82.98
2019-03-31T04:35:39.048Z,82.62
2019-03-31T04:38:11.919Z,82.62
2019-03-31T04:40:44.957Z,82.11
2019-03-31T04:43:17.557Z,82.00
2019-03-31T04:45:50.275Z,82.21
2019-03-31T04:48:22.938Z,82.05
2019-03-31T04:50:55.894Z,81.72
2019-03-31T04:53:28.506Z,81.51
2019-03-31T04:56:01.189Z,81.29
2019-03-31T04:58:35.066Z,81.56
2019-03-31T05:01:07.740Z,81.08
2019-03-31T05:03:40.464Z,81.14
2019-03-31T05:06:13.673Z,80.79
2019-03-31T05:08:46.424Z,80.90
2019-03-31T05:11:19.206Z,81.01
2019-03-31T05:13:51.813Z,81.45
2019-03-31T05:16:24.477Z,81.35
2019-03-31T05:18:57.237Z,81.01
2019-03-31T05:21:30.280Z,81.26
2019-03-31T05:24:02.944Z,81.13
2019-03-31T05:26:35.738Z,81.48
2019-03-31T05:29:08.287Z,82.32
2019-03-31T05:31:41.134Z,81.54
2019-03-31T05:34:19.252Z,81.09
2019-03-31T05:36:48.395Z,81.00
2019-03-31T05:39:21.324Z,80.90
2019-03-31T05:41:54.156Z,80.20
2019-03-31T05:44:26.885Z,79.89
2019-03-31T05:46:59.696Z,79.61
2019-03-31T05:49:33.208Z,79.94
2019-03-31T05:52:06.047Z,80.25
2019-03-31T05:54:38.674Z,80.29
2019-03-31T05:57:11.504Z,80.46
2019-03-31T05:59:44.311Z,80.09
2019-03-31T06:02:17.176Z,79.78
2019-03-31T06:04:49.956Z,79.22
2019-03-31T06:07:22.728Z,79.31
2019-03-31T06:09:55.474Z,78.60
2019-03-31T06:12:28.147Z,77.74
2019-03-31T06:15:00.844Z,77.52
2019-03-31T06:17:33.737Z,77.39
2019-03-31T06:20:07.397Z,76.87
2019-03-31T06:22:40.445Z,75.28
2019-03-31T06:25:13.089Z,74.95
2019-03-31T06:27:45.707Z,75.17
2019-03-31T06:30:18.394Z,73.85
2019-03-31T06:32:51.644Z,73.39
2019-03-31T06:35:24.251Z,73.09
2019-03-31T06:37:57.167Z,72.58
2019-03-31T06:40:29.885Z,72.04
2019-03-31T06:43:02.897Z,70.60
2019-03-31T06:45:35.736Z,70.46
2019-03-31T06:48:08.579Z,68.96
2019-03-31T06:50:41.094Z,69.33
2019-03-31T06:53:14.066Z,67.72
2019-03-31T06:55:46.766Z,66.39
2019-03-31T06:58:19.556Z,67.69
2019-03-31T07:00:52.404Z,66.41
2019-03-31T07:03:25.155Z,66.56
2019-03-31T07:05:57.823Z,65.05
2019-03-31T07:08:30.676Z,64.50
2019-03-31T07:11:04.007Z,63.91
2019-03-31T07:13:36.647Z,63.84
2019-03-31T07:16:09.607Z,62.05
2019-03-31T07:18:42.425Z,62.09
2019-03-31T07:21:15.476Z,60.58
2019-03-31T07:23:48.466Z,59.83
2019-03-31T07:26:21.236Z,59.94
2019-03-31T07:28:53.964Z,58.94
2019-03-31T07:31:26.802Z,58.38
2019-03-31T07:33:59.599Z,57.47
2019-03-31T07:36:32.394Z,56.36
2019-03-31T07:39:07.221Z,57.10
2019-03-31T07:41:40.241Z,56.42
2019-03-31T07:44:15.578Z,56.58
2019-03-31T07:46:48.285Z,54.76
2019-03-31T07:49:20.826Z,54.94
2019-03-31T07:51:53.885Z,55.38
2019-03-31T07:54:27.556Z,54.97
2019-03-31T07:57:00.435Z,54.28
2019-03-31T07:59:33.585Z,51.43
2019-03-31T08:02:06.334Z,52.44
2019-03-31T08:04:40.265Z,52.29
2019-03-31T08:07:12.968Z,52.30
2019-03-31T08:09:46.086Z,50.14
2019-03-31T08:12:18.874Z,50.13
2019-03-31T08:14:51.786Z,48.09
2019-03-31T08:17:24.646Z,46.62
2019-03-31T08:19:57.376Z,48.81
2019-03-31T08:22:30.240Z,48.47
2019-03-31T08:25:03.064Z,49.17
2019-03-31T08:27:36.344Z,49.15
2019-03-31T08:30:11.546Z,45.55
2019-03-31T08:32:44.744Z,48.13
2019-03-31T08:35:18.626Z,47.46
2019-03-31T08:37:51.260Z,46.32
2019-03-31T08:40:24.894Z,47.26
2019-03-31T08:42:58.046Z,47.19
2019-03-31T08:45:31.116Z,43.41
2019-03-31T08:48:03.994Z,45.61
2019-03-31T08:50:37.300Z,44.47
2019-03-31T08:53:10.064Z,43.31
2019-03-31T08:55:42.995Z,39.45
2019-03-31T08:58:16.049Z,39.09
2019-03-31T09:00:58.356Z,41.96
2019-03-31T09:03:30.123Z,40.07
2019-03-31T09:06:02.815Z,38.92
2019-03-31T09:08:36.115Z,38.96
2019-03-31T09:11:08.728Z,38.67
2019-03-31T09:13:41.654Z,42.27
2019-03-31T09:16:15.017Z,42.03
2019-03-31T09:18:49.276Z,41.68
2019-03-31T09:21:22.149Z,40.65
2019-03-31T09:23:55.684Z,36.76
2019-03-31T09:26:28.597Z,36.04
2019-03-31T09:29:03.126Z,36.48
2019-03-31T09:31:36.308Z,37.73
2019-03-31T09:34:08.924Z,37.94
2019-03-31T09:36:42.046Z,35.80
2019-03-31T09:39:14.977Z,38.57
2019-03-31T09:41:47.925Z,34.31
2019-03-31T09:44:21.256Z,32.51
2019-03-31T09:46:54.496Z,37.68
2019-03-31T09:49:27.104Z,34.94
2019-03-31T09:52:00.326Z,34.61
2019-03-31T09:54:33.208Z,31.85
2019-03-31T09:57:05.899Z,33.74
2019-03-31T09:59:39.046Z,33.07
2019-03-31T10:02:12.164Z,36.15
2019-03-31T10:04:45.335Z,35.18
2019-03-31T10:07:25.316Z,35.92
2019-03-31T10:09:58.906Z,35.34
2019-03-31T10:12:32.144Z,31.70
2019-03-31T10:15:05.536Z,35.38
2019-03-31T10:17:38.506Z,32.92
2019-03-31T10:20:11.374Z,33.06
2019-03-31T10:22:44.724Z,34.17
2019-03-31T10:25:17.472Z,34.05
2019-03-31T10:27:50.599Z,33.77
2019-03-31T10:30:32.853Z,32.47
2019-03-31T10:33:05.025Z,30.56
2019-03-31T10:35:37.824Z,28.42
2019-03-31T10:38:11.007Z,29.75
2019-03-31T10:40:44.114Z,34.48
2019-03-31T10:43:17.103Z,35.26
2019-03-31T10:45:50.246Z,31.74
2019-03-31T10:48:22.956Z,33.93
2019-03-31T10:50:55.897Z,35.55
2019-03-31T10:53:28.511Z,36.70
2019-03-31T10:56:01.966Z,31.67
2019-03-31T10:58:34.586Z,34.27
2019-03-31T11:01:08.927Z,30.45
2019-03-31T11:03:41.889Z,33.18
2019-03-31T11:06:14.614Z,31.81
2019-03-31T11:08:47.556Z,31.06
2019-03-31T11:11:20.436Z,30.16
2019-03-31T11:13:53.126Z,32.67
2019-03-31T11:16:25.714Z,30.72
2019-03-31T11:18:58.436Z,31.09
2019-03-31T11:21:36.248Z,32.08
2019-03-31T11:24:08.934Z,34.98
2019-03-31T11:26:41.576Z,36.57
2019-03-31T11:29:14.217Z,35.09
2019-03-31T11:31:47.151Z,37.27
2019-03-31T11:34:21.366Z,36.67
2019-03-31T11:36:54.386Z,37.46
2019-03-31T11:39:27.234Z,34.06
2019-03-31T11:41:59.934Z,34.20
2019-03-31T11:44:34.314Z,35.81
2019-03-31T11:47:07.349Z,35.38
2019-03-31T11:49:43.034Z,33.32
2019-03-31T11:52:15.708Z,33.43
2019-03-31T11:54:48.374Z,32.24
2019-03-31T11:57:20.967Z,32.94
2019-03-31T11:59:53.665Z,32.15
2019-03-31T12:02:30.723Z,34.02
2019-03-31T12:05:06.222Z,33.85
2019-03-31T12:07:47.220Z,35.44
2019-03-31T12:10:15.703Z,34.47
2019-03-31T12:12:49.096Z,33.93
2019-03-31T12:15:32.336Z,36.18
2019-03-31T12:18:08.835Z,36.42
2019-03-31T12:20:42.060Z,36.81
2019-03-31T12:23:14.777Z,38.54
2019-03-31T12:25:47.969Z,38.39
2019-03-31T12:28:20.589Z,37.91
2019-03-31T12:30:53.233Z,37.52
2019-03-31T12:33:25.785Z,38.25
2019-03-31T12:35:58.473Z,39.04
2019-03-31T12:38:38.144Z,38.81
2019-03-31T12:41:11.564Z,38.97
2019-03-31T12:43:44.565Z,37.42
2019-03-31T12:46:17.135Z,37.86
2019-03-31T12:48:50.014Z,37.66
2019-03-31T12:51:24.715Z,35.10
2019-03-31T12:53:57.426Z,36.84
2019-03-31T12:56:30.001Z,36.50
2019-03-31T12:59:03.017Z,36.54
2019-03-31T13:01:35.677Z,36.75
2019-03-31T13:04:08.423Z,36.70
2019-03-31T13:06:41.193Z,36.89
2019-03-31T13:09:41.615Z,37.98
2019-03-31T13:12:14.154Z,38.12
2019-03-31T13:14:47.033Z,37.30
2019-03-31T13:17:19.508Z,37.58
2019-03-31T13:19:52.363Z,36.99
2019-03-31T13:22:38.666Z,37.34
2019-03-31T13:25:13.633Z,36.49
2019-03-31T13:27:46.153Z,36.34
2019-03-31T13:30:21.898Z,36.73
2019-03-31T13:32:53.667Z,35.15
2019-03-31T13:35:26.465Z,35.42
2019-03-31T13:38:10.803Z,35.60
2019-03-31T13:40:38.898Z,35.09
2019-03-31T13:43:11.534Z,36.12
2019-03-31T13:45:44.325Z,37.00
2019-03-31T13:48:17.124Z,36.03
2019-03-31T13:50:49.817Z,36.60
2019-03-31T13:53:22.654Z,36.40
2019-03-31T13:55:55.195Z,37.77
2019-03-31T13:58:31.133Z,38.35
2019-03-31T14:01:08.059Z,37.52
2019-03-31T14:03:40.936Z,36.89
2019-03-31T14:06:14.075Z,37.41
2019-03-31T14:08:47.504Z,37.81
2019-03-31T14:11:21.761Z,38.15
2019-03-31T14:13:56.112Z,37.74
2019-03-31T14:16:36.255Z,37.66
2019-03-31T14:19:12.862Z,37.62
2019-03-31T14:21:43.855Z,38.39
2019-03-31T14:24:22.986Z,39.33
2019-03-31T14:26:55.757Z,38.57
2019-03-31T14:29:28.617Z,38.24
2019-03-31T14:32:05.571Z,38.28
2019-03-31T14:34:38.396Z,38.25
2019-03-31T14:37:11.364Z,39.42
2019-03-31T14:39:44.236Z,40.44
2019-03-31T14:42:18.325Z,40.83
2019-03-31T14:44:52.615Z,41.14
2019-03-31T14:47:27.863Z,41.35
2019-03-31T14:50:00.752Z,40.74
2019-03-31T14:52:35.226Z,41.05
2019-03-31T14:55:08.245Z,39.89
2019-03-31T14:57:44.610Z,40.18
2019-03-31T15:00:17.548Z,39.64
2019-03-31T15:02:52.913Z,40.96
2019-03-31T15:05:35.315Z,41.41
2019-03-31T15:08:11.616Z,41.79
2019-03-31T15:10:46.124Z,42.07
2019-03-31T15:13:18.755Z,41.64
2019-03-31T15:15:51.516Z,41.63
2019-03-31T15:18:24.328Z,41.16
2019-03-31T15:20:56.927Z,40.67
2019-03-31T15:23:29.709Z,41.44
2019-03-31T15:26:02.589Z,41.75
2019-03-31T15:28:35.855Z,42.94
2019-03-31T15:31:09.784Z,43.87
2019-03-31T15:33:45.066Z,44.18
2019-03-31T15:36:18.574Z,44.33
2019-03-31T15:38:51.896Z,44.48
2019-03-31T15:41:29.856Z,44.63
2019-03-31T15:44:02.860Z,44.68
2019-03-31T15:46:35.663Z,44.93
2019-03-31T15:49:09.508Z,45.24
2019-03-31T15:51:42.064Z,45.47
2019-03-31T15:54:17.654Z,45.41
2019-03-31T15:56:50.514Z,45.58
2019-03-31T15:59:23.465Z,45.94
2019-03-31T16:01:56.294Z,45.98
2019-03-31T16:04:29.034Z,46.32
2019-03-31T16:07:02.794Z,46.72
2019-03-31T16:09:35.144Z,46.83
2019-03-31T16:12:08.314Z,47.42
2019-03-31T16:14:40.504Z,47.48
2019-03-31T16:17:11.454Z,47.83
2019-03-31T16:19:43.444Z,48.50
2019-03-31T16:22:14.605Z,48.26
2019-03-31T16:24:52.105Z,48.59
2019-03-31T16:27:24.436Z,48.14
2019-03-31T16:29:56.616Z,48.13
2019-03-31T16:32:28.604Z,48.46
2019-03-31T16:35:01.235Z,48.76
2019-03-31T16:37:33.573Z,49.11
2019-03-31T16:40:06.353Z,49.67
2019-03-31T16:42:38.613Z,49.64
2019-03-31T16:45:10.264Z,49.80
2019-03-31T16:47:48.500Z,50.15
2019-03-31T16:50:20.505Z,49.75
2019-03-31T16:52:57.456Z,49.95
2019-03-31T16:55:33.951Z,50.23
2019-03-31T16:58:09.660Z,50.88
2019-03-31T17:00:42.804Z,51.18
2019-03-31T17:03:18.104Z,51.57
2019-03-31T17:05:48.543Z,51.47
2019-03-31T17:08:20.714Z,51.49
2019-03-31T17:10:51.845Z,51.97
2019-03-31T17:13:24.299Z,52.31
2019-03-31T17:15:56.594Z,51.99
2019-03-31T17:18:28.666Z,51.92
2019-03-31T17:21:00.718Z,52.81
2019-03-31T17:23:31.885Z,52.53
2019-03-31T17:26:06.074Z,53.84
2019-03-31T17:28:38.425Z,53.81
2019-03-31T17:31:10.444Z,54.03
2019-03-31T17:33:43.147Z,53.84
2019-03-31T17:36:15.387Z,52.95
2019-03-31T17:38:47.616Z,53.46
2019-03-31T17:41:18.685Z,54.07
2019-03-31T17:43:50.516Z,54.54
2019-03-31T17:46:23.256Z,53.29
2019-03-31T17:48:55.396Z,53.96
2019-03-31T17:51:27.496Z,53.38
2019-03-31T17:53:58.516Z,53.53
2019-03-31T17:56:30.444Z,54.53
2019-03-31T17:59:02.515Z,53.12
2019-03-31T18:01:34.495Z,53.89
2019-03-31T18:04:06.530Z,54.06
2019-03-31T18:06:38.524Z,54.21
2019-03-31T18:09:10.996Z,53.67
2019-03-31T18:11:43.256Z,53.57
2019-03-31T18:14:14.427Z,53.84
2019-03-31T18:16:47.157Z,55.72
2019-03-31T18:19:19.236Z,54.58
2019-03-31T18:21:51.280Z,54.37
2019-03-31T18:24:22.307Z,54.47
2019-03-31T18:26:54.834Z,56.17
2019-03-31T18:29:25.825Z,54.87
2019-03-31T18:31:57.620Z,56.20
2019-03-31T18:34:29.594Z,54.99
2019-03-31T18:37:05.095Z,55.20
2019-03-31T18:39:37.155Z,55.54
2019-03-31T18:42:09.064Z,56.29
2019-03-31T18:44:41.355Z,56.29
2019-03-31T18:47:12.524Z,56.38
2019-03-31T18:49:44.361Z,58.21
2019-03-31T18:52:16.452Z,57.06
2019-03-31T18:54:59.067Z,56.83
2019-03-31T18:57:53.355Z,57.14
2019-03-31T19:00:42.861Z,57.29
2019-03-31T19:03:34.046Z,57.40
2019-03-31T19:06:25.125Z,57.87
2019-03-31T19:09:09.368Z,58.27
2019-03-31T19:12:06.338Z,58.72
2019-03-31T19:15:06.178Z,59.27
2019-03-31T19:17:55.638Z,59.53
2019-03-31T19:20:45.094Z,59.84
2019-03-31T19:23:42.794Z,60.14
2019-03-31T19:26:49.042Z,60.14
2019-03-31T19:29:43.095Z,60.42
2019-03-31T19:32:36.834Z,60.18
2019-03-31T19:35:17.589Z,60.37
2019-03-31T19:38:05.043Z,60.47
2019-03-31T19:41:04.141Z,60.74
2019-03-31T19:43:51.494Z,60.49
2019-03-31T19:46:48.636Z,60.35
2019-03-31T19:49:37.898Z,59.40
2019-03-31T19:52:44.126Z,58.93
2019-03-31T19:55:38.814Z,58.50
2019-03-31T19:58:41.494Z,58.46
2019-03-31T20:01:23.209Z,58.40
2019-03-31T20:04:22.937Z,59.20
2019-03-31T20:07:22.638Z,58.28
2019-03-31T20:10:14.441Z,58.49
2019-03-31T20:13:05.544Z,58.83
2019-03-31T20:15:47.957Z,59.11
2019-03-31T20:18:39.684Z,58.77
2019-03-31T20:21:33.294Z,58.74
2019-03-31T20:24:27.228Z,58.42
2019-03-31T20:27:18.034Z,58.33
2019-03-31T20:30:05.538Z,57.94
2019-03-31T20:32:54.961Z,57.67
2019-03-31T20:35:48.756Z,57.42
2019-03-31T20:38:31.406Z,57.22
2019-03-31T20:41:09.088Z,56.81
2019-03-31T20:43:57.368Z,56.90
2019-03-31T20:46:29.458Z,56.85
2019-03-31T20:49:01.435Z,56.83
2019-03-31T20:51:33.583Z,56.70
2019-03-31T20:54:05.792Z,56.36
2019-03-31T20:56:36.784Z,56.50
2019-03-31T20:59:08.695Z,54.55
2019-03-31T21:01:41.444Z,56.02
2019-03-31T21:04:12.609Z,55.58
2019-03-31T21:06:44.526Z,54.44
2019-03-31T21:09:16.501Z,56.23
2019-03-31T21:11:48.621Z,56.25
2019-03-31T21:14:20.515Z,56.37
2019-03-31T21:16:59.289Z,56.45
2019-03-31T21:19:36.004Z,56.44
2019-03-31T21:22:07.976Z,56.21
2019-03-31T21:24:39.995Z,56.30
2019-03-31T21:27:14.166Z,55.98
2019-03-31T21:29:46.256Z,56.10
2019-03-31T21:32:18.397Z,56.14
2019-03-31T21:34:49.377Z,55.77
2019-03-31T21:37:21.657Z,54.46
2019-03-31T21:39:53.677Z,55.80
2019-03-31T21:42:25.815Z,55.78
2019-03-31T21:44:57.847Z,55.46
2019-03-31T21:47:29.024Z,55.28
2019-03-31T21:50:00.769Z,53.03
2019-03-31T21:52:34.521Z,54.59
2019-03-31T21:55:06.876Z,54.52
2019-03-31T21:57:37.854Z,53.92
2019-03-31T22:00:12.183Z,52.63
2019-03-31T22:02:46.046Z,54.05
2019-03-31T22:05:18.217Z,54.21
2019-03-31T22:07:49.294Z,54.06
2019-03-31T22:10:21.216Z,51.87
2019-03-31T22:12:53.269Z,53.24
2019-03-31T22:15:25.196Z,53.43
2019-03-31T22:17:57.156Z,52.17
2019-03-31T22:20:29.196Z,51.73
2019-03-31T22:23:04.350Z,51.92
2019-03-31T22:25:45.196Z,51.92
2019-03-31T22:28:17.385Z,50.89
2019-03-31T22:30:49.496Z,51.49
2019-03-31T22:33:21.399Z,50.64
2019-03-31T22:36:15.465Z,49.98
2019-03-31T22:38:47.387Z,51.00
2019-03-31T22:41:19.618Z,51.70
2019-03-31T22:43:51.776Z,49.22
2019-03-31T22:46:23.688Z,51.56
2019-03-31T22:48:56.146Z,51.33
2019-03-31T22:51:29.324Z,51.48
2019-03-31T22:54:00.277Z,51.25
2019-03-31T22:56:32.108Z,48.36
2019-03-31T22:59:03.986Z,52.13
2019-03-31T23:01:35.858Z,52.03
2019-03-31T23:04:07.986Z,51.99
2019-03-31T23:06:41.543Z,52.12
2019-03-31T23:09:13.505Z,51.36
2019-03-31T23:11:45.588Z,52.37
2019-03-31T23:14:16.744Z,51.92
2019-03-31T23:16:48.698Z,49.81
2019-03-31T23:19:19.934Z,52.69
2019-03-31T23:21:51.795Z,50.38
2019-03-31T23:24:22.864Z,53.12
2019-03-31T23:26:54.675Z,51.32
2019-03-31T23:29:26.765Z,53.42
2019-03-31T23:31:59.045Z,53.36
2019-03-31T23:34:31.847Z,53.84
2019-03-31T23:37:04.118Z,54.01
2019-03-31T23:39:36.267Z,53.96
2019-03-31T23:42:08.747Z,54.36
2019-03-31T23:44:40.755Z,54.56
2019-03-31T23:47:13.146Z,54.67
2019-03-31T23:49:45.516Z,54.92
2019-03-31T23:52:17.598Z,55.10
2019-03-31T23:54:49.726Z,55.26
2019-03-31T23:57:39.316Z,55.59
